Airfield :







YOU CAN JOIN US ON...

 
LOGIN :

Register | Disclaimer

   EN    FR    IT 

 









Legend :    VFR   Marginal VFR   IFR   Intensive IFR   Very Intensive IFR
Visi :
Ceiling :
>= 8 km
>= 3000ft
5 to 8 km
1000 to 3000 ft
1500m to 5 km
500 to 1000 ft
800 to 1500m
200 to 500 ft
< 800m
< 200 ft
Symbols :   Thunderstorms  Fog  Heavy snow  Heavy precipitations  Wind > 20 kt






- Airport Elevation : 550 ft
- IATA code : YOY


CYOY - C J.H.L.(Joe) Lecomte) Heliport

EXPIRED METARs :
  • 191914Z 26009KT 240V300 15SM SCT050 SCT250 25/11 A3000 RMK CU3CI1 DENSITY ALT 1888FT LAST OBS /NEXT 221100 UTC SLP160
  • 191900Z 23006KT 200V310 15SM SCT050 SCT250 25/13 A3000 RMK CU3CI1 DENSITY ALT 1933FT SLP160
  • 191800Z 28010G16KT 250V330 15SM SCT050 SCT250 24/11 A3001 RMK CU4CI1 DENSITY ALT 1841FT SLP165
  • 191700Z 27009G15KT 230V310 15SM BKN050 23/11 A3002 RMK CU5 DENSITY ALT 1685FT SLP168

TAF TAF CYOY
Valid from the 19 at 18:00 until the 20 at 06:00 UTC


191740Z 1918/2006 27010G20KT P6SM SCT050
TEMPO 1918/2006 BKN050
BECMG 2000/2002 VRB03KT RMK NXT FCST BY 200000Z
CZUL FIR / North America



MET'MAP, your aeronautical weather chart ! - Copyright ORBIFLY December 2007 - Disclaimer

ORBIFLY MET'MAP TEAM :

Programming & Development : Alexandra Zaïnal
Original concept : Baudouin d'Aumeries
Technical & hardware support : Manuel Goepfert
Assistance : Marc-Olivier Méhu




SOURCES & CREDITS :

   NOAA